sensor_id;sensor_type;location;lat;lon;timestamp;P1;durP1;ratioP1;P2;durP2;ratioP2
18544;SDS011;9402;51.460;7.276;2023-08-08T00:01:10;2.70;;;1.73;;
18544;SDS011;9402;51.460;7.276;2023-08-08T00:03:11;3.83;;;2.27;;
18544;SDS011;9402;51.460;7.276;2023-08-08T00:05:13;4.50;;;2.60;;
18544;SDS011;9402;51.460;7.276;2023-08-08T00:07:13;2.87;;;1.90;;
18544;SDS011;9402;51.460;7.276;2023-08-08T00:09:15;7.60;;;2.23;;
18544;SDS011;9402;51.460;7.276;2023-08-08T00:11:18;3.73;;;1.93;;
18544;SDS011;9402;51.460;7.276;2023-08-08T00:13:20;3.47;;;1.80;;
18544;SDS011;9402;51.460;7.276;2023-08-08T00:15:21;8.70;;;2.30;;
18544;SDS011;9402;51.460;7.276;2023-08-08T00:17:23;6.37;;;2.20;;
18544;SDS011;9402;51.460;7.276;2023-08-08T00:19:25;5.17;;;2.13;;
18544;SDS011;9402;51.460;7.276;2023-08-08T00:21:26;3.60;;;1.97;;
18544;SDS011;9402;51.460;7.276;2023-08-08T00:23:28;5.23;;;2.40;;
18544;SDS011;9402;51.460;7.276;2023-08-08T00:25:30;11.17;;;2.10;;
18544;SDS011;9402;51.460;7.276;2023-08-08T00:27:33;12.17;;;2.10;;
18544;SDS011;9402;51.460;7.276;2023-08-08T00:29:34;3.00;;;2.20;;
18544;SDS011;9402;51.460;7.276;2023-08-08T00:31:36;2.67;;;1.80;;
18544;SDS011;9402;51.460;7.276;2023-08-08T00:33:37;6.27;;;2.17;;
18544;SDS011;9402;51.460;7.276;2023-08-08T00:35:38;6.70;;;2.30;;
18544;SDS011;9402;51.460;7.276;2023-08-08T00:37:40;9.30;;;2.00;;
18544;SDS011;9402;51.460;7.276;2023-08-08T00:39:42;4.10;;;2.03;;
18544;SDS011;9402;51.460;7.276;2023-08-08T00:41:46;3.77;;;1.90;;
18544;SDS011;9402;51.460;7.276;2023-08-08T00:43:49;1.97;;;1.60;;
18544;SDS011;9402;51.460;7.276;2023-08-08T00:45:50;5.80;;;2.43;;
18544;SDS011;9402;51.460;7.276;2023-08-08T00:47:52;9.60;;;2.03;;
18544;SDS011;9402;51.460;7.276;2023-08-08T00:49:53;5.57;;;1.93;;
18544;SDS011;9402;51.460;7.276;2023-08-08T00:51:55;2.33;;;1.70;;
18544;SDS011;9402;51.460;7.276;2023-08-08T00:53:57;5.03;;;2.30;;
18544;SDS011;9402;51.460;7.276;2023-08-08T00:55:59;5.63;;;1.80;;
18544;SDS011;9402;51.460;7.276;2023-08-08T00:58:00;7.90;;;2.40;;
18544;SDS011;9402;51.460;7.276;2023-08-08T01:00:04;4.70;;;2.27;;
18544;SDS011;9402;51.460;7.276;2023-08-08T01:02:07;7.00;;;2.43;;
18544;SDS011;9402;51.460;7.276;2023-08-08T01:04:08;4.73;;;2.07;;
18544;SDS011;9402;51.460;7.276;2023-08-08T01:06:11;6.33;;;2.37;;
18544;SDS011;9402;51.460;7.276;2023-08-08T01:08:15;3.37;;;1.90;;
18544;SDS011;9402;51.460;7.276;2023-08-08T01:10:19;5.77;;;2.50;;
18544;SDS011;9402;51.460;7.276;2023-08-08T01:12:23;6.60;;;2.40;;
18544;SDS011;9402;51.460;7.276;2023-08-08T01:14:26;10.87;;;2.40;;
18544;SDS011;9402;51.460;7.276;2023-08-08T01:16:31;4.37;;;2.40;;
18544;SDS011;9402;51.460;7.276;2023-08-08T01:18:32;4.90;;;2.37;;
18544;SDS011;9402;51.460;7.276;2023-08-08T01:20:33;3.80;;;2.40;;
18544;SDS011;9402;51.460;7.276;2023-08-08T01:22:37;3.30;;;2.43;;
18544;SDS011;9402;51.460;7.276;2023-08-08T01:24:41;5.00;;;2.10;;
18544;SDS011;9402;51.460;7.276;2023-08-08T01:26:44;6.03;;;2.87;;
18544;SDS011;9402;51.460;7.276;2023-08-08T01:28:46;3.13;;;1.90;;
18544;SDS011;9402;51.460;7.276;2023-08-08T01:30:48;5.63;;;2.50;;
18544;SDS011;9402;51.460;7.276;2023-08-08T01:32:49;7.10;;;2.40;;
18544;SDS011;9402;51.460;7.276;2023-08-08T01:34:51;3.83;;;2.03;;
18544;SDS011;9402;51.460;7.276;2023-08-08T01:36:54;2.77;;;2.10;;
18544;SDS011;9402;51.460;7.276;2023-08-08T01:38:58;5.70;;;2.10;;
18544;SDS011;9402;51.460;7.276;2023-08-08T01:41:05;2.67;;;2.30;;
18544;SDS011;9402;51.460;7.276;2023-08-08T01:43:07;4.53;;;2.87;;
18544;SDS011;9402;51.460;7.276;2023-08-08T01:45:09;2.70;;;1.60;;
18544;SDS011;9402;51.460;7.276;2023-08-08T01:47:11;7.87;;;2.03;;
18544;SDS011;9402;51.460;7.276;2023-08-08T01:49:13;4.60;;;2.00;;
18544;SDS011;9402;51.460;7.276;2023-08-08T01:51:15;11.97;;;2.37;;
18544;SDS011;9402;51.460;7.276;2023-08-08T01:53:16;5.43;;;2.43;;
18544;SDS011;9402;51.460;7.276;2023-08-08T01:55:18;4.13;;;2.00;;
18544;SDS011;9402;51.460;7.276;2023-08-08T01:57:21;5.57;;;2.60;;
18544;SDS011;9402;51.460;7.276;2023-08-08T01:59:23;3.43;;;1.97;;
18544;SDS011;9402;51.460;7.276;2023-08-08T02:01:24;4.93;;;2.30;;
18544;SDS011;9402;51.460;7.276;2023-08-08T02:03:26;4.53;;;2.43;;
18544;SDS011;9402;51.460;7.276;2023-08-08T02:05:27;8.13;;;2.60;;
18544;SDS011;9402;51.460;7.276;2023-08-08T02:07:29;7.17;;;2.87;;
18544;SDS011;9402;51.460;7.276;2023-08-08T02:09:30;4.27;;;2.10;;
18544;SDS011;9402;51.460;7.276;2023-08-08T02:11:31;3.80;;;2.53;;
18544;SDS011;9402;51.460;7.276;2023-08-08T02:13:34;3.10;;;2.23;;
18544;SDS011;9402;51.460;7.276;2023-08-08T02:15:35;6.77;;;2.67;;
18544;SDS011;9402;51.460;7.276;2023-08-08T02:17:37;6.40;;;2.10;;
18544;SDS011;9402;51.460;7.276;2023-08-08T02:19:38;6.00;;;2.13;;
18544;SDS011;9402;51.460;7.276;2023-08-08T02:21:39;1.97;;;1.77;;
18544;SDS011;9402;51.460;7.276;2023-08-08T02:23:41;12.47;;;1.80;;
18544;SDS011;9402;51.460;7.276;2023-08-08T02:25:43;3.87;;;1.97;;
18544;SDS011;9402;51.460;7.276;2023-08-08T02:27:44;3.40;;;2.00;;
18544;SDS011;9402;51.460;7.276;2023-08-08T02:29:47;4.13;;;1.90;;
18544;SDS011;9402;51.460;7.276;2023-08-08T02:31:49;5.83;;;2.37;;
18544;SDS011;9402;51.460;7.276;2023-08-08T02:33:50;3.60;;;2.00;;
18544;SDS011;9402;51.460;7.276;2023-08-08T02:35:52;4.17;;;2.17;;
18544;SDS011;9402;51.460;7.276;2023-08-08T02:37:54;8.10;;;2.13;;
18544;SDS011;9402;51.460;7.276;2023-08-08T02:39:55;4.43;;;2.20;;
18544;SDS011;9402;51.460;7.276;2023-08-08T02:41:57;8.40;;;2.00;;
18544;SDS011;9402;51.460;7.276;2023-08-08T02:43:59;6.50;;;3.00;;
18544;SDS011;9402;51.460;7.276;2023-08-08T02:46:02;4.33;;;2.50;;
18544;SDS011;9402;51.460;7.276;2023-08-08T02:48:04;5.03;;;1.80;;
18544;SDS011;9402;51.460;7.276;2023-08-08T02:50:06;6.90;;;2.23;;
18544;SDS011;9402;51.460;7.276;2023-08-08T02:52:08;4.67;;;2.40;;
18544;SDS011;9402;51.460;7.276;2023-08-08T02:54:10;2.90;;;2.20;;
18544;SDS011;9402;51.460;7.276;2023-08-08T02:56:10;6.73;;;3.10;;
18544;SDS011;9402;51.460;7.276;2023-08-08T02:58:12;5.93;;;2.70;;
18544;SDS011;9402;51.460;7.276;2023-08-08T03:00:14;2.90;;;2.07;;
18544;SDS011;9402;51.460;7.276;2023-08-08T03:02:17;5.20;;;2.67;;
18544;SDS011;9402;51.460;7.276;2023-08-08T03:04:18;3.33;;;2.27;;
18544;SDS011;9402;51.460;7.276;2023-08-08T03:06:19;8.10;;;2.63;;
18544;SDS011;9402;51.460;7.276;2023-08-08T03:08:21;8.93;;;2.67;;
18544;SDS011;9402;51.460;7.276;2023-08-08T03:10:22;5.80;;;2.17;;
18544;SDS011;9402;51.460;7.276;2023-08-08T03:12:23;9.93;;;2.57;;
18544;SDS011;9402;51.460;7.276;2023-08-08T03:14:25;3.77;;;2.13;;
18544;SDS011;9402;51.460;7.276;2023-08-08T03:16:26;2.93;;;2.37;;
18544;SDS011;9402;51.460;7.276;2023-08-08T03:18:29;5.87;;;2.70;;
18544;SDS011;9402;51.460;7.276;2023-08-08T03:20:31;9.27;;;2.27;;
18544;SDS011;9402;51.460;7.276;2023-08-08T03:22:33;9.10;;;3.40;;
18544;SDS011;9402;51.460;7.276;2023-08-08T03:24:34;12.60;;;2.83;;
18544;SDS011;9402;51.460;7.276;2023-08-08T03:26:36;8.63;;;3.17;;
18544;SDS011;9402;51.460;7.276;2023-08-08T03:28:38;8.67;;;3.00;;
18544;SDS011;9402;51.460;7.276;2023-08-08T03:30:39;5.60;;;2.40;;
18544;SDS011;9402;51.460;7.276;2023-08-08T03:32:41;6.13;;;2.77;;
18544;SDS011;9402;51.460;7.276;2023-08-08T03:34:44;15.47;;;3.20;;
18544;SDS011;9402;51.460;7.276;2023-08-08T03:36:45;5.43;;;2.60;;
18544;SDS011;9402;51.460;7.276;2023-08-08T03:38:47;3.07;;;2.53;;
18544;SDS011;9402;51.460;7.276;2023-08-08T03:40:50;6.20;;;3.23;;
18544;SDS011;9402;51.460;7.276;2023-08-08T03:42:52;8.30;;;2.90;;
18544;SDS011;9402;51.460;7.276;2023-08-08T03:44:53;4.93;;;3.23;;
18544;SDS011;9402;51.460;7.276;2023-08-08T03:46:55;4.50;;;2.60;;
18544;SDS011;9402;51.460;7.276;2023-08-08T03:48:57;5.73;;;3.10;;
18544;SDS011;9402;51.460;7.276;2023-08-08T03:51:00;9.47;;;4.27;;
18544;SDS011;9402;51.460;7.276;2023-08-08T03:53:01;13.60;;;3.77;;
18544;SDS011;9402;51.460;7.276;2023-08-08T03:55:03;11.57;;;4.27;;
18544;SDS011;9402;51.460;7.276;2023-08-08T03:57:06;11.97;;;5.00;;
18544;SDS011;9402;51.460;7.276;2023-08-08T03:59:07;9.33;;;5.20;;
18544;SDS011;9402;51.460;7.276;2023-08-08T04:01:09;7.20;;;4.60;;
18544;SDS011;9402;51.460;7.276;2023-08-08T04:03:12;10.17;;;4.30;;
18544;SDS011;9402;51.460;7.276;2023-08-08T04:05:14;11.77;;;5.30;;
18544;SDS011;9402;51.460;7.276;2023-08-08T04:07:17;11.23;;;4.70;;
18544;SDS011;9402;51.460;7.276;2023-08-08T04:09:19;18.00;;;6.10;;
18544;SDS011;9402;51.460;7.276;2023-08-08T04:11:21;7.50;;;5.13;;
18544;SDS011;9402;51.460;7.276;2023-08-08T04:13:22;15.30;;;5.30;;
18544;SDS011;9402;51.460;7.276;2023-08-08T04:15:24;9.80;;;4.87;;
18544;SDS011;9402;51.460;7.276;2023-08-08T04:17:25;12.73;;;6.20;;
18544;SDS011;9402;51.460;7.276;2023-08-08T04:19:27;17.60;;;4.70;;
18544;SDS011;9402;51.460;7.276;2023-08-08T04:21:29;12.80;;;5.63;;
18544;SDS011;9402;51.460;7.276;2023-08-08T04:23:33;15.10;;;6.00;;
18544;SDS011;9402;51.460;7.276;2023-08-08T04:25:35;13.10;;;5.27;;
18544;SDS011;9402;51.460;7.276;2023-08-08T04:27:36;17.60;;;5.80;;
18544;SDS011;9402;51.460;7.276;2023-08-08T04:29:37;13.83;;;5.60;;
18544;SDS011;9402;51.460;7.276;2023-08-08T04:31:39;12.47;;;5.67;;
18544;SDS011;9402;51.460;7.276;2023-08-08T04:33:40;9.67;;;5.50;;
18544;SDS011;9402;51.460;7.276;2023-08-08T04:35:42;11.73;;;5.03;;
18544;SDS011;9402;51.460;7.276;2023-08-08T04:37:43;12.20;;;5.47;;
18544;SDS011;9402;51.460;7.276;2023-08-08T04:39:47;9.00;;;5.90;;
18544;SDS011;9402;51.460;7.276;2023-08-08T04:41:48;15.73;;;6.20;;
18544;SDS011;9402;51.460;7.276;2023-08-08T04:43:50;10.40;;;5.83;;
18544;SDS011;9402;51.460;7.276;2023-08-08T04:45:51;13.47;;;5.97;;
18544;SDS011;9402;51.460;7.276;2023-08-08T04:47:53;11.23;;;5.77;;
18544;SDS011;9402;51.460;7.276;2023-08-08T04:49:55;12.97;;;7.00;;
18544;SDS011;9402;51.460;7.276;2023-08-08T04:51:55;13.90;;;7.43;;
18544;SDS011;9402;51.460;7.276;2023-08-08T04:53:57;12.77;;;6.60;;
18544;SDS011;9402;51.460;7.276;2023-08-08T04:56:00;22.73;;;6.83;;
18544;SDS011;9402;51.460;7.276;2023-08-08T04:58:02;20.20;;;6.83;;
18544;SDS011;9402;51.460;7.276;2023-08-08T05:00:04;11.80;;;6.80;;
18544;SDS011;9402;51.460;7.276;2023-08-08T05:02:08;10.83;;;7.70;;
18544;SDS011;9402;51.460;7.276;2023-08-08T05:04:10;10.10;;;7.13;;
18544;SDS011;9402;51.460;7.276;2023-08-08T05:06:11;14.87;;;7.50;;
18544;SDS011;9402;51.460;7.276;2023-08-08T05:08:13;14.37;;;8.37;;
18544;SDS011;9402;51.460;7.276;2023-08-08T05:10:15;18.47;;;8.37;;
18544;SDS011;9402;51.460;7.276;2023-08-08T05:12:18;21.77;;;8.90;;
18544;SDS011;9402;51.460;7.276;2023-08-08T05:14:19;16.03;;;8.20;;
18544;SDS011;9402;51.460;7.276;2023-08-08T05:16:21;19.00;;;8.50;;
18544;SDS011;9402;51.460;7.276;2023-08-08T05:18:24;27.90;;;9.07;;
18544;SDS011;9402;51.460;7.276;2023-08-08T05:20:26;15.83;;;8.57;;
18544;SDS011;9402;51.460;7.276;2023-08-08T05:22:27;22.97;;;10.63;;
18544;SDS011;9402;51.460;7.276;2023-08-08T05:24:29;17.97;;;9.03;;
18544;SDS011;9402;51.460;7.276;2023-08-08T05:26:31;16.30;;;10.90;;
18544;SDS011;9402;51.460;7.276;2023-08-08T05:28:34;21.37;;;11.57;;
18544;SDS011;9402;51.460;7.276;2023-08-08T05:30:35;19.63;;;10.60;;
18544;SDS011;9402;51.460;7.276;2023-08-08T05:32:37;29.40;;;12.60;;
18544;SDS011;9402;51.460;7.276;2023-08-08T05:34:38;22.17;;;11.70;;
18544;SDS011;9402;51.460;7.276;2023-08-08T05:36:40;19.00;;;11.70;;
18544;SDS011;9402;51.460;7.276;2023-08-08T05:38:42;18.17;;;11.40;;
18544;SDS011;9402;51.460;7.276;2023-08-08T05:40:43;23.87;;;11.53;;
18544;SDS011;9402;51.460;7.276;2023-08-08T05:42:45;22.63;;;10.97;;
18544;SDS011;9402;51.460;7.276;2023-08-08T05:44:48;34.07;;;11.30;;
18544;SDS011;9402;51.460;7.276;2023-08-08T05:46:49;21.90;;;12.00;;
18544;SDS011;9402;51.460;7.276;2023-08-08T05:48:51;37.37;;;14.37;;
18544;SDS011;9402;51.460;7.276;2023-08-08T05:50:53;34.53;;;12.03;;
18544;SDS011;9402;51.460;7.276;2023-08-08T05:52:58;33.83;;;13.70;;
18544;SDS011;9402;51.460;7.276;2023-08-08T05:55:00;24.40;;;13.50;;
18544;SDS011;9402;51.460;7.276;2023-08-08T05:57:02;32.43;;;12.87;;
18544;SDS011;9402;51.460;7.276;2023-08-08T05:59:04;42.57;;;16.50;;
18544;SDS011;9402;51.460;7.276;2023-08-08T06:01:07;22.17;;;13.80;;
18544;SDS011;9402;51.460;7.276;2023-08-08T06:03:09;27.70;;;14.00;;
18544;SDS011;9402;51.460;7.276;2023-08-08T06:05:10;30.23;;;14.50;;
18544;SDS011;9402;51.460;7.276;2023-08-08T06:07:12;25.33;;;14.10;;
18544;SDS011;9402;51.460;7.276;2023-08-08T06:09:14;33.93;;;15.00;;
18544;SDS011;9402;51.460;7.276;2023-08-08T06:11:15;33.03;;;13.17;;
18544;SDS011;9402;51.460;7.276;2023-08-08T06:13:17;37.20;;;15.10;;
18544;SDS011;9402;51.460;7.276;2023-08-08T06:15:18;31.07;;;14.30;;
18544;SDS011;9402;51.460;7.276;2023-08-08T06:17:21;24.93;;;14.90;;
18544;SDS011;9402;51.460;7.276;2023-08-08T06:19:23;36.83;;;15.80;;
18544;SDS011;9402;51.460;7.276;2023-08-08T06:21:25;28.40;;;15.03;;
18544;SDS011;9402;51.460;7.276;2023-08-08T06:23:26;38.87;;;16.70;;
18544;SDS011;9402;51.460;7.276;2023-08-08T06:25:28;31.10;;;14.87;;
18544;SDS011;9402;51.460;7.276;2023-08-08T06:27:29;20.63;;;12.77;;
18544;SDS011;9402;51.460;7.276;2023-08-08T06:29:30;24.63;;;13.30;;
18544;SDS011;9402;51.460;7.276;2023-08-08T06:31:32;27.50;;;16.33;;
18544;SDS011;9402;51.460;7.276;2023-08-08T06:33:35;25.43;;;13.30;;
18544;SDS011;9402;51.460;7.276;2023-08-08T06:35:36;37.50;;;17.33;;
18544;SDS011;9402;51.460;7.276;2023-08-08T06:37:38;31.17;;;14.90;;
18544;SDS011;9402;51.460;7.276;2023-08-08T06:39:40;27.33;;;15.60;;
18544;SDS011;9402;51.460;7.276;2023-08-08T06:41:42;32.27;;;15.20;;
18544;SDS011;9402;51.460;7.276;2023-08-08T06:43:42;25.53;;;15.10;;
18544;SDS011;9402;51.460;7.276;2023-08-08T06:45:44;29.93;;;13.77;;
18544;SDS011;9402;51.460;7.276;2023-08-08T06:47:45;30.80;;;15.33;;
18544;SDS011;9402;51.460;7.276;2023-08-08T06:49:48;36.83;;;15.80;;
18544;SDS011;9402;51.460;7.276;2023-08-08T06:51:50;36.57;;;16.37;;
18544;SDS011;9402;51.460;7.276;2023-08-08T06:53:52;31.63;;;15.23;;
18544;SDS011;9402;51.460;7.276;2023-08-08T06:55:53;29.47;;;14.63;;
18544;SDS011;9402;51.460;7.276;2023-08-08T06:57:55;35.93;;;16.23;;
18544;SDS011;9402;51.460;7.276;2023-08-08T06:59:57;33.90;;;16.10;;
18544;SDS011;9402;51.460;7.276;2023-08-08T07:01:58;27.57;;;14.33;;
18544;SDS011;9402;51.460;7.276;2023-08-08T07:04:01;31.63;;;15.20;;
18544;SDS011;9402;51.460;7.276;2023-08-08T07:06:04;31.90;;;15.10;;
18544;SDS011;9402;51.460;7.276;2023-08-08T07:08:04;29.43;;;14.83;;
18544;SDS011;9402;51.460;7.276;2023-08-08T07:10:09;25.13;;;14.60;;
18544;SDS011;9402;51.460;7.276;2023-08-08T07:12:12;34.63;;;15.63;;
18544;SDS011;9402;51.460;7.276;2023-08-08T07:14:13;24.03;;;14.43;;
18544;SDS011;9402;51.460;7.276;2023-08-08T07:16:15;24.03;;;14.50;;
18544;SDS011;9402;51.460;7.276;2023-08-08T07:18:17;23.93;;;15.27;;
18544;SDS011;9402;51.460;7.276;2023-08-08T07:20:18;25.77;;;15.30;;
18544;SDS011;9402;51.460;7.276;2023-08-08T07:22:21;30.53;;;16.30;;
18544;SDS011;9402;51.460;7.276;2023-08-08T07:24:23;27.47;;;15.90;;
18544;SDS011;9402;51.460;7.276;2023-08-08T07:26:28;39.37;;;15.60;;
18544;SDS011;9402;51.460;7.276;2023-08-08T07:28:30;37.63;;;17.40;;
18544;SDS011;9402;51.460;7.276;2023-08-08T07:30:32;27.93;;;14.77;;
18544;SDS011;9402;51.460;7.276;2023-08-08T07:32:34;30.50;;;13.87;;
18544;SDS011;9402;51.460;7.276;2023-08-08T07:34:36;21.80;;;13.70;;
18544;SDS011;9402;51.460;7.276;2023-08-08T07:36:37;26.83;;;12.77;;
18544;SDS011;9402;51.460;7.276;2023-08-08T07:38:40;29.20;;;13.33;;
18544;SDS011;9402;51.460;7.276;2023-08-08T07:40:42;25.93;;;11.87;;
18544;SDS011;9402;51.460;7.276;2023-08-08T07:42:43;25.93;;;12.93;;
18544;SDS011;9402;51.460;7.276;2023-08-08T07:44:45;23.17;;;12.00;;
18544;SDS011;9402;51.460;7.276;2023-08-08T07:46:47;21.30;;;10.57;;
18544;SDS011;9402;51.460;7.276;2023-08-08T07:48:48;21.70;;;11.40;;
18544;SDS011;9402;51.460;7.276;2023-08-08T07:50:50;21.70;;;10.53;;
18544;SDS011;9402;51.460;7.276;2023-08-08T07:52:51;17.23;;;11.07;;
18544;SDS011;9402;51.460;7.276;2023-08-08T07:54:54;29.33;;;10.70;;
18544;SDS011;9402;51.460;7.276;2023-08-08T07:56:56;20.73;;;10.70;;
18544;SDS011;9402;51.460;7.276;2023-08-08T07:58:58;18.27;;;9.67;;
18544;SDS011;9402;51.460;7.276;2023-08-08T08:00:59;17.33;;;7.80;;
18544;SDS011;9402;51.460;7.276;2023-08-08T08:03:00;17.20;;;9.67;;
18544;SDS011;9402;51.460;7.276;2023-08-08T08:05:02;18.67;;;8.17;;
18544;SDS011;9402;51.460;7.276;2023-08-08T08:07:05;17.57;;;8.23;;
18544;SDS011;9402;51.460;7.276;2023-08-08T08:09:07;16.67;;;7.80;;
18544;SDS011;9402;51.460;7.276;2023-08-08T08:11:10;13.40;;;8.07;;
18544;SDS011;9402;51.460;7.276;2023-08-08T08:13:13;11.50;;;7.13;;
18544;SDS011;9402;51.460;7.276;2023-08-08T08:15:14;15.80;;;7.10;;
18544;SDS011;9402;51.460;7.276;2023-08-08T08:17:16;18.17;;;7.50;;
18544;SDS011;9402;51.460;7.276;2023-08-08T08:19:18;14.77;;;7.10;;
18544;SDS011;9402;51.460;7.276;2023-08-08T08:21:20;16.57;;;6.90;;
18544;SDS011;9402;51.460;7.276;2023-08-08T08:23:21;15.17;;;5.57;;
18544;SDS011;9402;51.460;7.276;2023-08-08T08:25:23;10.23;;;5.17;;
18544;SDS011;9402;51.460;7.276;2023-08-08T08:27:26;17.70;;;5.63;;
18544;SDS011;9402;51.460;7.276;2023-08-08T08:29:28;12.43;;;5.23;;
18544;SDS011;9402;51.460;7.276;2023-08-08T08:31:31;13.10;;;5.37;;
18544;SDS011;9402;51.460;7.276;2023-08-08T08:33:32;10.63;;;5.30;;
18544;SDS011;9402;51.460;7.276;2023-08-08T08:35:34;10.53;;;4.87;;
18544;SDS011;9402;51.460;7.276;2023-08-08T08:37:36;7.73;;;4.90;;
18544;SDS011;9402;51.460;7.276;2023-08-08T08:39:37;8.73;;;5.30;;
18544;SDS011;9402;51.460;7.276;2023-08-08T08:41:39;13.10;;;4.57;;
18544;SDS011;9402;51.460;7.276;2023-08-08T08:43:42;8.17;;;4.80;;
18544;SDS011;9402;51.460;7.276;2023-08-08T08:45:43;7.77;;;5.13;;
18544;SDS011;9402;51.460;7.276;2023-08-08T08:47:51;6.50;;;4.10;;
18544;SDS011;9402;51.460;7.276;2023-08-08T08:49:58;10.07;;;4.33;;
18544;SDS011;9402;51.460;7.276;2023-08-08T08:52:03;11.37;;;4.20;;
18544;SDS011;9402;51.460;7.276;2023-08-08T08:54:05;10.43;;;4.40;;
18544;SDS011;9402;51.460;7.276;2023-08-08T08:56:07;11.23;;;3.83;;
18544;SDS011;9402;51.460;7.276;2023-08-08T08:58:09;10.00;;;3.67;;
18544;SDS011;9402;51.460;7.276;2023-08-08T09:00:12;10.17;;;3.40;;
18544;SDS011;9402;51.460;7.276;2023-08-08T09:02:16;7.20;;;3.20;;
18544;SDS011;9402;51.460;7.276;2023-08-08T09:04:19;14.10;;;4.17;;
18544;SDS011;9402;51.460;7.276;2023-08-08T09:06:20;16.63;;;3.50;;
18544;SDS011;9402;51.460;7.276;2023-08-08T09:08:23;8.23;;;3.07;;
18544;SDS011;9402;51.460;7.276;2023-08-08T09:10:25;7.67;;;3.50;;
18544;SDS011;9402;51.460;7.276;2023-08-08T09:12:27;10.40;;;3.27;;
18544;SDS011;9402;51.460;7.276;2023-08-08T09:14:29;9.00;;;3.83;;
18544;SDS011;9402;51.460;7.276;2023-08-08T09:16:32;7.13;;;3.33;;
18544;SDS011;9402;51.460;7.276;2023-08-08T09:18:33;13.60;;;3.50;;
18544;SDS011;9402;51.460;7.276;2023-08-08T09:20:38;6.20;;;3.33;;
18544;SDS011;9402;51.460;7.276;2023-08-08T09:22:39;7.73;;;3.23;;
18544;SDS011;9402;51.460;7.276;2023-08-08T09:24:41;6.03;;;2.70;;
18544;SDS011;9402;51.460;7.276;2023-08-08T09:26:43;11.03;;;3.10;;
18544;SDS011;9402;51.460;7.276;2023-08-08T09:28:45;13.40;;;3.00;;
18544;SDS011;9402;51.460;7.276;2023-08-08T09:30:46;6.03;;;3.00;;
18544;SDS011;9402;51.460;7.276;2023-08-08T09:32:48;9.13;;;2.43;;
18544;SDS011;9402;51.460;7.276;2023-08-08T09:34:51;7.93;;;2.87;;
18544;SDS011;9402;51.460;7.276;2023-08-08T09:36:52;9.00;;;2.83;;
18544;SDS011;9402;51.460;7.276;2023-08-08T09:38:54;6.20;;;2.90;;
18544;SDS011;9402;51.460;7.276;2023-08-08T09:40:56;7.70;;;3.17;;
18544;SDS011;9402;51.460;7.276;2023-08-08T09:42:57;18.53;;;3.13;;
18544;SDS011;9402;51.460;7.276;2023-08-08T09:44:59;8.47;;;2.67;;
18544;SDS011;9402;51.460;7.276;2023-08-08T09:47:01;10.93;;;2.60;;
18544;SDS011;9402;51.460;7.276;2023-08-08T09:49:05;5.90;;;2.97;;
18544;SDS011;9402;51.460;7.276;2023-08-08T09:51:06;5.83;;;2.63;;
18544;SDS011;9402;51.460;7.276;2023-08-08T09:53:08;14.37;;;2.90;;
18544;SDS011;9402;51.460;7.276;2023-08-08T09:55:11;9.83;;;3.07;;
18544;SDS011;9402;51.460;7.276;2023-08-08T09:57:13;7.17;;;2.77;;
18544;SDS011;9402;51.460;7.276;2023-08-08T09:59:14;4.03;;;2.70;;
18544;SDS011;9402;51.460;7.276;2023-08-08T10:01:18;8.83;;;3.40;;
18544;SDS011;9402;51.460;7.276;2023-08-08T10:03:20;9.73;;;2.80;;
18544;SDS011;9402;51.460;7.276;2023-08-08T10:05:24;11.13;;;2.70;;
18544;SDS011;9402;51.460;7.276;2023-08-08T10:07:25;11.10;;;2.87;;
18544;SDS011;9402;51.460;7.276;2023-08-08T10:09:26;4.93;;;2.47;;
18544;SDS011;9402;51.460;7.276;2023-08-08T10:11:29;13.60;;;2.83;;
18544;SDS011;9402;51.460;7.276;2023-08-08T10:13:31;11.43;;;2.47;;
18544;SDS011;9402;51.460;7.276;2023-08-08T10:15:36;8.63;;;3.40;;
18544;SDS011;9402;51.460;7.276;2023-08-08T10:17:38;9.17;;;2.40;;
18544;SDS011;9402;51.460;7.276;2023-08-08T10:19:48;5.60;;;2.67;;
18544;SDS011;9402;51.460;7.276;2023-08-08T10:21:56;7.53;;;2.90;;
18544;SDS011;9402;51.460;7.276;2023-08-08T10:24:03;9.13;;;2.57;;
18544;SDS011;9402;51.460;7.276;2023-08-08T10:26:06;7.17;;;2.57;;
18544;SDS011;9402;51.460;7.276;2023-08-08T10:28:19;8.07;;;2.20;;
18544;SDS011;9402;51.460;7.276;2023-08-08T10:30:21;8.30;;;2.57;;
18544;SDS011;9402;51.460;7.276;2023-08-08T10:32:24;8.77;;;2.93;;
18544;SDS011;9402;51.460;7.276;2023-08-08T10:34:26;5.63;;;2.20;;
18544;SDS011;9402;51.460;7.276;2023-08-08T10:39:01;10.00;;;2.50;;
18544;SDS011;9402;51.460;7.276;2023-08-08T10:41:03;6.57;;;2.70;;
18544;SDS011;9402;51.460;7.276;2023-08-08T10:43:09;13.03;;;3.00;;
18544;SDS011;9402;51.460;7.276;2023-08-08T10:45:13;11.00;;;3.17;;
18544;SDS011;9402;51.460;7.276;2023-08-08T10:47:15;4.57;;;2.40;;
18544;SDS011;9402;51.460;7.276;2023-08-08T10:49:18;7.73;;;2.90;;
18544;SDS011;9402;51.460;7.276;2023-08-08T10:51:20;7.60;;;2.57;;
18544;SDS011;9402;51.460;7.276;2023-08-08T10:53:23;10.20;;;2.63;;
18544;SDS011;9402;51.460;7.276;2023-08-08T10:55:27;10.30;;;2.40;;
18544;SDS011;9402;51.460;7.276;2023-08-08T10:57:32;6.30;;;2.80;;
18544;SDS011;9402;51.460;7.276;2023-08-08T10:59:36;8.73;;;2.60;;
18544;SDS011;9402;51.460;7.276;2023-08-08T11:01:38;4.13;;;2.20;;
18544;SDS011;9402;51.460;7.276;2023-08-08T11:03:40;5.00;;;2.60;;
18544;SDS011;9402;51.460;7.276;2023-08-08T11:05:42;11.77;;;3.00;;
18544;SDS011;9402;51.460;7.276;2023-08-08T11:07:48;7.83;;;3.00;;
18544;SDS011;9402;51.460;7.276;2023-08-08T11:09:52;5.40;;;2.67;;
18544;SDS011;9402;51.460;7.276;2023-08-08T11:11:54;4.87;;;2.53;;
18544;SDS011;9402;51.460;7.276;2023-08-08T11:13:56;8.27;;;3.07;;
18544;SDS011;9402;51.460;7.276;2023-08-08T11:15:56;5.60;;;3.07;;
18544;SDS011;9402;51.460;7.276;2023-08-08T11:17:58;7.73;;;3.00;;
18544;SDS011;9402;51.460;7.276;2023-08-08T11:20:00;16.80;;;2.77;;
18544;SDS011;9402;51.460;7.276;2023-08-08T11:22:08;5.13;;;2.23;;
18544;SDS011;9402;51.460;7.276;2023-08-08T11:24:11;8.80;;;2.60;;
18544;SDS011;9402;51.460;7.276;2023-08-08T11:26:14;3.20;;;2.27;;
18544;SDS011;9402;51.460;7.276;2023-08-08T11:28:18;6.50;;;1.87;;
18544;SDS011;9402;51.460;7.276;2023-08-08T11:30:20;12.80;;;3.23;;
18544;SDS011;9402;51.460;7.276;2023-08-08T11:32:23;8.00;;;2.50;;
18544;SDS011;9402;51.460;7.276;2023-08-08T11:34:25;8.67;;;2.97;;
18544;SDS011;9402;51.460;7.276;2023-08-08T11:36:29;8.33;;;2.53;;
18544;SDS011;9402;51.460;7.276;2023-08-08T11:38:31;5.97;;;2.40;;
18544;SDS011;9402;51.460;7.276;2023-08-08T11:40:33;6.00;;;2.70;;
18544;SDS011;9402;51.460;7.276;2023-08-08T11:42:36;10.07;;;2.60;;
18544;SDS011;9402;51.460;7.276;2023-08-08T11:44:39;10.90;;;2.77;;
18544;SDS011;9402;51.460;7.276;2023-08-08T11:46:44;6.73;;;2.37;;
18544;SDS011;9402;51.460;7.276;2023-08-08T11:48:46;7.27;;;2.80;;
18544;SDS011;9402;51.460;7.276;2023-08-08T11:50:48;6.60;;;2.33;;
18544;SDS011;9402;51.460;7.276;2023-08-08T11:52:51;12.80;;;2.50;;
18544;SDS011;9402;51.460;7.276;2023-08-08T11:54:53;6.53;;;2.67;;
18544;SDS011;9402;51.460;7.276;2023-08-08T11:56:55;9.80;;;2.67;;
18544;SDS011;9402;51.460;7.276;2023-08-08T11:58:58;5.00;;;2.40;;
18544;SDS011;9402;51.460;7.276;2023-08-08T12:01:00;11.60;;;2.70;;
18544;SDS011;9402;51.460;7.276;2023-08-08T12:03:02;9.37;;;2.93;;
18544;SDS011;9402;51.460;7.276;2023-08-08T12:05:04;4.50;;;1.90;;
18544;SDS011;9402;51.460;7.276;2023-08-08T12:07:06;8.17;;;2.93;;
18544;SDS011;9402;51.460;7.276;2023-08-08T12:09:08;15.00;;;2.57;;
18544;SDS011;9402;51.460;7.276;2023-08-08T12:11:13;9.90;;;2.70;;
18544;SDS011;9402;51.460;7.276;2023-08-08T12:13:14;8.13;;;2.70;;
18544;SDS011;9402;51.460;7.276;2023-08-08T12:15:17;4.97;;;2.30;;
18544;SDS011;9402;51.460;7.276;2023-08-08T12:17:20;4.33;;;2.63;;
18544;SDS011;9402;51.460;7.276;2023-08-08T12:19:22;5.23;;;2.43;;
18544;SDS011;9402;51.460;7.276;2023-08-08T12:21:24;17.60;;;2.90;;
18544;SDS011;9402;51.460;7.276;2023-08-08T12:23:26;10.00;;;2.47;;